sensor_id;sensor_type;location;lat;lon;timestamp;pressure;altitude;pressure_sealevel;temperature
68440;BMP180;55421;51.600;5.718;2023-07-29T00:00:01;142717.41;;;19.80
68440;BMP180;55421;51.600;5.718;2023-07-29T00:02:27;143394.80;;;19.82
68440;BMP180;55421;51.600;5.718;2023-07-29T00:04:57;143976.00;;;19.88
68440;BMP180;55421;51.600;5.718;2023-07-29T00:07:23;143990.00;;;19.80
68440;BMP180;55421;51.600;5.718;2023-07-29T00:09:49;143282.00;;;19.78
68440;BMP180;55421;51.600;5.718;2023-07-29T00:12:16;143724.59;;;19.70
68440;BMP180;55421;51.600;5.718;2023-07-29T00:14:42;143107.80;;;19.60
68440;BMP180;55421;51.600;5.718;2023-07-29T00:17:09;143392.59;;;19.60
68440;BMP180;55421;51.600;5.718;2023-07-29T00:19:35;140977.20;;;19.60
68440;BMP180;55421;51.600;5.718;2023-07-29T00:22:04;140965.80;;;19.60
68440;BMP180;55421;51.600;5.718;2023-07-29T00:24:30;140704.80;;;19.54
68440;BMP180;55421;51.600;5.718;2023-07-29T00:26:57;141918.41;;;19.50
68440;BMP180;55421;51.600;5.718;2023-07-29T00:29:23;142007.20;;;19.50
68440;BMP180;55421;51.600;5.718;2023-07-29T00:31:49;142877.59;;;19.50
68440;BMP180;55421;51.600;5.718;2023-07-29T00:34:16;143385.59;;;19.50
68440;BMP180;55421;51.600;5.718;2023-07-29T00:36:46;144031.20;;;19.54
68440;BMP180;55421;51.600;5.718;2023-07-29T00:39:12;145438.41;;;19.60
68440;BMP180;55421;51.600;5.718;2023-07-29T00:41:40;146493.80;;;19.60
68440;BMP180;55421;51.600;5.718;2023-07-29T00:44:06;146691.41;;;19.68
68440;BMP180;55421;51.600;5.718;2023-07-29T00:46:35;146591.00;;;19.70
68440;BMP180;55421;51.600;5.718;2023-07-29T00:49:02;147009.00;;;19.70
68440;BMP180;55421;51.600;5.718;2023-07-29T00:51:28;147317.80;;;19.70
68440;BMP180;55421;51.600;5.718;2023-07-29T00:53:55;147769.00;;;19.70
68440;BMP180;55421;51.600;5.718;2023-07-29T00:56:22;146976.00;;;19.70
68440;BMP180;55421;51.600;5.718;2023-07-29T00:58:49;146871.41;;;19.70
68440;BMP180;55421;51.600;5.718;2023-07-29T01:01:16;146934.00;;;19.70
68440;BMP180;55421;51.600;5.718;2023-07-29T01:03:43;147483.20;;;19.70
68440;BMP180;55421;51.600;5.718;2023-07-29T01:06:56;148437.80;;;19.70
68440;BMP180;55421;51.600;5.718;2023-07-29T01:10:02;149159.80;;;19.60
68440;BMP180;55421;51.600;5.718;2023-07-29T01:12:54;148642.41;;;19.60
68440;BMP180;55421;51.600;5.718;2023-07-29T01:15:46;149471.80;;;19.50
68440;BMP180;55421;51.600;5.718;2023-07-29T01:18:23;149384.59;;;19.50
68440;BMP180;55421;51.600;5.718;2023-07-29T01:20:54;149971.80;;;19.56
68440;BMP180;55421;51.600;5.718;2023-07-29T01:23:25;149776.00;;;19.50
68440;BMP180;55421;51.600;5.718;2023-07-29T01:25:52;149889.59;;;19.50
68440;BMP180;55421;51.600;5.718;2023-07-29T01:28:18;149928.80;;;19.50
68440;BMP180;55421;51.600;5.718;2023-07-29T01:30:48;149699.00;;;19.50
68440;BMP180;55421;51.600;5.718;2023-07-29T01:33:18;150561.00;;;19.50
68440;BMP180;55421;51.600;5.718;2023-07-29T01:35:55;150835.59;;;19.50
68440;BMP180;55421;51.600;5.718;2023-07-29T01:38:35;151416.80;;;19.50
68440;BMP180;55421;51.600;5.718;2023-07-29T01:41:03;152169.00;;;19.50
68440;BMP180;55421;51.600;5.718;2023-07-29T01:43:31;151762.20;;;19.42
68440;BMP180;55421;51.600;5.718;2023-07-29T01:45:58;151940.59;;;19.40
68440;BMP180;55421;51.600;5.718;2023-07-29T01:50:50;151770.41;;;19.40
68440;BMP180;55421;51.600;5.718;2023-07-29T01:53:17;152140.41;;;19.40
68440;BMP180;55421;51.600;5.718;2023-07-29T01:55:44;151910.00;;;19.40
68440;BMP180;55421;51.600;5.718;2023-07-29T01:58:11;151928.80;;;19.40
68440;BMP180;55421;51.600;5.718;2023-07-29T02:00:38;152363.41;;;19.40
68440;BMP180;55421;51.600;5.718;2023-07-29T02:03:04;153030.80;;;19.40
68440;BMP180;55421;51.600;5.718;2023-07-29T02:05:31;153603.80;;;19.40
68440;BMP180;55421;51.600;5.718;2023-07-29T02:07:57;153206.59;;;19.50
68440;BMP180;55421;51.600;5.718;2023-07-29T02:10:24;153461.00;;;19.50
68440;BMP180;55421;51.600;5.718;2023-07-29T02:12:50;153590.20;;;19.60
68440;BMP180;55421;51.600;5.718;2023-07-29T02:15:17;153450.41;;;19.58
68440;BMP180;55421;51.600;5.718;2023-07-29T02:17:43;153877.59;;;19.52
68440;BMP180;55421;51.600;5.718;2023-07-29T02:20:10;152926.41;;;19.50
68440;BMP180;55421;51.600;5.718;2023-07-29T02:22:37;152956.80;;;19.50
68440;BMP180;55421;51.600;5.718;2023-07-29T02:25:04;153193.41;;;19.46
68440;BMP180;55421;51.600;5.718;2023-07-29T02:27:31;152117.41;;;19.40
68440;BMP180;55421;51.600;5.718;2023-07-29T02:29:58;153324.80;;;19.30
68440;BMP180;55421;51.600;5.718;2023-07-29T02:32:24;152929.00;;;19.24
68440;BMP180;55421;51.600;5.718;2023-07-29T02:34:51;151117.20;;;19.20
68440;BMP180;55421;51.600;5.718;2023-07-29T02:37:17;150137.00;;;19.10
68440;BMP180;55421;51.600;5.718;2023-07-29T02:39:45;150916.00;;;19.10
68440;BMP180;55421;51.600;5.718;2023-07-29T02:42:11;152297.20;;;19.10
68440;BMP180;55421;51.600;5.718;2023-07-29T02:44:40;152414.00;;;19.18
68440;BMP180;55421;51.600;5.718;2023-07-29T02:47:06;153233.20;;;19.20
68440;BMP180;55421;51.600;5.718;2023-07-29T02:49:33;153471.41;;;19.20
68440;BMP180;55421;51.600;5.718;2023-07-29T02:51:59;154133.20;;;19.28
68440;BMP180;55421;51.600;5.718;2023-07-29T02:54:26;154234.80;;;19.24
68440;BMP180;55421;51.600;5.718;2023-07-29T02:56:53;155042.80;;;19.20
68440;BMP180;55421;51.600;5.718;2023-07-29T02:59:19;155762.20;;;19.20
68440;BMP180;55421;51.600;5.718;2023-07-29T03:01:46;155979.59;;;19.20
68440;BMP180;55421;51.600;5.718;2023-07-29T03:04:13;156033.80;;;19.12
68440;BMP180;55421;51.600;5.718;2023-07-29T03:06:39;155214.00;;;19.10
68440;BMP180;55421;51.600;5.718;2023-07-29T03:09:06;154957.41;;;19.10
68440;BMP180;55421;51.600;5.718;2023-07-29T03:11:32;155094.80;;;19.06
68440;BMP180;55421;51.600;5.718;2023-07-29T03:13:58;155268.00;;;19.00
68440;BMP180;55421;51.600;5.718;2023-07-29T03:16:25;154817.80;;;19.00
68440;BMP180;55421;51.600;5.718;2023-07-29T03:18:51;154553.59;;;19.00
68440;BMP180;55421;51.600;5.718;2023-07-29T03:21:18;154233.00;;;18.90
68440;BMP180;55421;51.600;5.718;2023-07-29T03:23:44;153541.59;;;18.90
68440;BMP180;55421;51.600;5.718;2023-07-29T03:26:11;152788.80;;;18.90
68440;BMP180;55421;51.600;5.718;2023-07-29T03:28:41;153154.00;;;18.90
68440;BMP180;55421;51.600;5.718;2023-07-29T03:31:09;153176.80;;;18.82
68440;BMP180;55421;51.600;5.718;2023-07-29T03:33:35;153339.80;;;18.80
68440;BMP180;55421;51.600;5.718;2023-07-29T03:36:02;153153.20;;;18.80
68440;BMP180;55421;51.600;5.718;2023-07-29T03:38:28;153072.20;;;18.80
68440;BMP180;55421;51.600;5.718;2023-07-29T03:40:57;152960.80;;;18.74
68440;BMP180;55421;51.600;5.718;2023-07-29T03:43:23;152973.00;;;18.70
68440;BMP180;55421;51.600;5.718;2023-07-29T03:45:50;152349.00;;;18.66
68440;BMP180;55421;51.600;5.718;2023-07-29T03:48:16;151681.00;;;18.60
68440;BMP180;55421;51.600;5.718;2023-07-29T03:50:43;151232.41;;;18.50
68440;BMP180;55421;51.600;5.718;2023-07-29T03:53:09;150890.59;;;18.50
68440;BMP180;55421;51.600;5.718;2023-07-29T03:55:36;150797.59;;;18.40
68440;BMP180;55421;51.600;5.718;2023-07-29T03:58:02;150502.59;;;18.40
68440;BMP180;55421;51.600;5.718;2023-07-29T04:00:29;149908.41;;;18.30
68440;BMP180;55421;51.600;5.718;2023-07-29T04:02:55;149678.20;;;18.30
68440;BMP180;55421;51.600;5.718;2023-07-29T04:05:22;149287.59;;;18.30
68440;BMP180;55421;51.600;5.718;2023-07-29T04:07:48;149613.80;;;18.30
68440;BMP180;55421;51.600;5.718;2023-07-29T04:10:15;149600.20;;;18.30
68440;BMP180;55421;51.600;5.718;2023-07-29T04:12:41;149224.20;;;18.20
68440;BMP180;55421;51.600;5.718;2023-07-29T04:15:08;148159.20;;;18.20
68440;BMP180;55421;51.600;5.718;2023-07-29T04:17:34;147696.41;;;18.20
68440;BMP180;55421;51.600;5.718;2023-07-29T04:20:01;147202.20;;;18.12
68440;BMP180;55421;51.600;5.718;2023-07-29T04:22:28;147327.41;;;18.10
68440;BMP180;55421;51.600;5.718;2023-07-29T04:24:54;146808.20;;;18.10
68440;BMP180;55421;51.600;5.718;2023-07-29T04:27:21;146915.00;;;18.10
68440;BMP180;55421;51.600;5.718;2023-07-29T04:29:47;146766.00;;;18.10
68440;BMP180;55421;51.600;5.718;2023-07-29T04:32:13;146616.59;;;18.10
68440;BMP180;55421;51.600;5.718;2023-07-29T04:34:40;146296.20;;;18.10
68440;BMP180;55421;51.600;5.718;2023-07-29T04:37:06;146119.59;;;18.20
68440;BMP180;55421;51.600;5.718;2023-07-29T04:39:33;145691.59;;;18.20
68440;BMP180;55421;51.600;5.718;2023-07-29T04:41:59;145011.00;;;18.20
68440;BMP180;55421;51.600;5.718;2023-07-29T04:44:27;144622.41;;;18.20
68440;BMP180;55421;51.600;5.718;2023-07-29T04:46:53;144152.20;;;18.10
68440;BMP180;55421;51.600;5.718;2023-07-29T04:49:20;144159.59;;;18.10
68440;BMP180;55421;51.600;5.718;2023-07-29T04:51:46;144878.41;;;18.10
68440;BMP180;55421;51.600;5.718;2023-07-29T04:54:12;144916.59;;;18.10
68440;BMP180;55421;51.600;5.718;2023-07-29T04:56:39;144815.80;;;18.20
68440;BMP180;55421;51.600;5.718;2023-07-29T04:59:05;145058.00;;;18.20
68440;BMP180;55421;51.600;5.718;2023-07-29T05:01:34;145237.20;;;18.22
68440;BMP180;55421;51.600;5.718;2023-07-29T05:04:01;144690.41;;;18.30
68440;BMP180;55421;51.600;5.718;2023-07-29T05:06:28;144287.41;;;18.30
68440;BMP180;55421;51.600;5.718;2023-07-29T05:08:57;144408.59;;;18.30
68440;BMP180;55421;51.600;5.718;2023-07-29T05:11:24;144418.00;;;18.28
68440;BMP180;55421;51.600;5.718;2023-07-29T05:13:51;145049.80;;;18.30
68440;BMP180;55421;51.600;5.718;2023-07-29T05:16:18;144763.80;;;18.30
68440;BMP180;55421;51.600;5.718;2023-07-29T05:18:45;144432.20;;;18.30
68440;BMP180;55421;51.600;5.718;2023-07-29T05:21:11;145322.59;;;18.36
68440;BMP180;55421;51.600;5.718;2023-07-29T05:23:40;145118.20;;;18.30
68440;BMP180;55421;51.600;5.718;2023-07-29T05:26:07;145001.41;;;18.30
68440;BMP180;55421;51.600;5.718;2023-07-29T05:28:33;144625.20;;;18.30
68440;BMP180;55421;51.600;5.718;2023-07-29T05:31:01;144814.00;;;18.30
68440;BMP180;55421;51.600;5.718;2023-07-29T05:33:28;145457.59;;;18.30
68440;BMP180;55421;51.600;5.718;2023-07-29T05:35:54;145299.20;;;18.30
68440;BMP180;55421;51.600;5.718;2023-07-29T05:38:21;145021.59;;;18.30
68440;BMP180;55421;51.600;5.718;2023-07-29T05:40:50;144226.41;;;18.30
68440;BMP180;55421;51.600;5.718;2023-07-29T05:43:17;144650.80;;;18.30
68440;BMP180;55421;51.600;5.718;2023-07-29T05:45:43;144099.41;;;18.30
68440;BMP180;55421;51.600;5.718;2023-07-29T05:48:10;143991.00;;;18.30
68440;BMP180;55421;51.600;5.718;2023-07-29T05:50:36;143669.41;;;18.30
68440;BMP180;55421;51.600;5.718;2023-07-29T05:53:02;143692.00;;;18.30
68440;BMP180;55421;51.600;5.718;2023-07-29T05:55:29;143227.80;;;18.34
68440;BMP180;55421;51.600;5.718;2023-07-29T05:57:56;143467.59;;;18.40
68440;BMP180;55421;51.600;5.718;2023-07-29T06:00:23;143626.00;;;18.40
68440;BMP180;55421;51.600;5.718;2023-07-29T06:02:50;144090.41;;;18.50
68440;BMP180;55421;51.600;5.718;2023-07-29T06:05:16;143709.00;;;18.50
68440;BMP180;55421;51.600;5.718;2023-07-29T06:07:43;143386.41;;;18.60
68440;BMP180;55421;51.600;5.718;2023-07-29T06:10:15;143754.80;;;18.70
68440;BMP180;55421;51.600;5.718;2023-07-29T06:12:45;144423.20;;;18.94
68440;BMP180;55421;51.600;5.718;2023-07-29T06:15:12;144828.59;;;19.20
68440;BMP180;55421;51.600;5.718;2023-07-29T06:17:40;144755.41;;;19.40
68440;BMP180;55421;51.600;5.718;2023-07-29T06:20:07;142916.80;;;19.50
68440;BMP180;55421;51.600;5.718;2023-07-29T06:22:34;142355.20;;;19.60
68440;BMP180;55421;51.600;5.718;2023-07-29T06:25:00;141007.00;;;19.70
68440;BMP180;55421;51.600;5.718;2023-07-29T06:27:27;140120.00;;;19.80
68440;BMP180;55421;51.600;5.718;2023-07-29T06:29:53;137972.80;;;19.90
68440;BMP180;55421;51.600;5.718;2023-07-29T06:32:20;137968.80;;;19.80
68440;BMP180;55421;51.600;5.718;2023-07-29T06:34:46;136335.59;;;19.70
68440;BMP180;55421;51.600;5.718;2023-07-29T06:37:13;134494.59;;;19.70
68440;BMP180;55421;51.600;5.718;2023-07-29T06:39:39;134486.80;;;19.70
68440;BMP180;55421;51.600;5.718;2023-07-29T06:42:06;135643.80;;;19.86
68440;BMP180;55421;51.600;5.718;2023-07-29T06:44:32;136998.41;;;20.04
68440;BMP180;55421;51.600;5.718;2023-07-29T06:46:59;135966.41;;;20.10
68440;BMP180;55421;51.600;5.718;2023-07-29T06:49:25;132351.41;;;20.00
68440;BMP180;55421;51.600;5.718;2023-07-29T06:51:52;130643.00;;;20.00
68440;BMP180;55421;51.600;5.718;2023-07-29T06:54:18;131012.20;;;20.10
68440;BMP180;55421;51.600;5.718;2023-07-29T06:56:45;130459.00;;;20.10
68440;BMP180;55421;51.600;5.718;2023-07-29T06:59:11;131572.00;;;20.20
68440;BMP180;55421;51.600;5.718;2023-07-29T07:01:38;131317.41;;;20.22
68440;BMP180;55421;51.600;5.718;2023-07-29T07:04:04;128694.40;;;20.20
68440;BMP180;55421;51.600;5.718;2023-07-29T07:06:30;128494.00;;;20.20
68440;BMP180;55421;51.600;5.718;2023-07-29T07:08:57;130074.00;;;20.28
68440;BMP180;55421;51.600;5.718;2023-07-29T07:11:23;129402.80;;;20.30
68440;BMP180;55421;51.600;5.718;2023-07-29T07:13:50;129971.40;;;20.40
68440;BMP180;55421;51.600;5.718;2023-07-29T07:16:16;130563.20;;;20.60
68440;BMP180;55421;51.600;5.718;2023-07-29T07:18:43;129685.00;;;20.70
68440;BMP180;55421;51.600;5.718;2023-07-29T07:21:10;129743.80;;;20.88
68440;BMP180;55421;51.600;5.718;2023-07-29T07:23:36;127972.40;;;21.10
68440;BMP180;55421;51.600;5.718;2023-07-29T07:26:03;120815.60;;;21.10
68440;BMP180;55421;51.600;5.718;2023-07-29T07:28:29;120541.60;;;21.00
68440;BMP180;55421;51.600;5.718;2023-07-29T07:30:56;117872.20;;;20.90
68440;BMP180;55421;51.600;5.718;2023-07-29T07:33:23;119139.40;;;20.80
68440;BMP180;55421;51.600;5.718;2023-07-29T07:35:49;120058.40;;;20.66
68440;BMP180;55421;51.600;5.718;2023-07-29T07:38:16;122265.40;;;20.60
68440;BMP180;55421;51.600;5.718;2023-07-29T07:40:52;120753.40;;;20.52
68440;BMP180;55421;51.600;5.718;2023-07-29T07:43:19;121671.80;;;20.50
68440;BMP180;55421;51.600;5.718;2023-07-29T07:45:45;124352.80;;;20.50
68440;BMP180;55421;51.600;5.718;2023-07-29T07:48:12;124607.60;;;20.60
68440;BMP180;55421;51.600;5.718;2023-07-29T07:50:39;123156.60;;;20.60
68440;BMP180;55421;51.600;5.718;2023-07-29T07:53:06;121164.00;;;20.60
68440;BMP180;55421;51.600;5.718;2023-07-29T07:55:32;122304.80;;;20.70
68440;BMP180;55421;51.600;5.718;2023-07-29T07:57:59;122583.40;;;20.80
68440;BMP180;55421;51.600;5.718;2023-07-29T08:00:25;121956.00;;;20.80
68440;BMP180;55421;51.600;5.718;2023-07-29T08:02:51;122293.20;;;20.80
68440;BMP180;55421;51.600;5.718;2023-07-29T08:05:18;122657.80;;;20.84
68440;BMP180;55421;51.600;5.718;2023-07-29T08:07:45;121084.00;;;20.90
68440;BMP180;55421;51.600;5.718;2023-07-29T08:10:11;120104.00;;;20.90
68440;BMP180;55421;51.600;5.718;2023-07-29T08:12:38;120930.20;;;20.90
68440;BMP180;55421;51.600;5.718;2023-07-29T08:15:05;118465.60;;;20.90
68440;BMP180;55421;51.600;5.718;2023-07-29T08:17:32;115042.60;;;20.90
68440;BMP180;55421;51.600;5.718;2023-07-29T08:19:58;112907.00;;;21.00
68440;BMP180;55421;51.600;5.718;2023-07-29T08:22:24;109633.20;;;21.04
68440;BMP180;55421;51.600;5.718;2023-07-29T08:24:51;107338.40;;;21.10
68440;BMP180;55421;51.600;5.718;2023-07-29T08:27:17;106336.80;;;21.20
68440;BMP180;55421;51.600;5.718;2023-07-29T08:29:44;105491.20;;;21.30
68440;BMP180;55421;51.600;5.718;2023-07-29T08:32:10;102856.40;;;21.50
68440;BMP180;55421;51.600;5.718;2023-07-29T08:34:37;104638.40;;;21.60
68440;BMP180;55421;51.600;5.718;2023-07-29T08:37:03;100647.00;;;21.70
68440;BMP180;55421;51.600;5.718;2023-07-29T08:39:29;95062.60;;;21.70
68440;BMP180;55421;51.600;5.718;2023-07-29T08:42:03;92159.40;;;21.70
68440;BMP180;55421;51.600;5.718;2023-07-29T08:44:42;87368.60;;;21.60
68440;BMP180;55421;51.600;5.718;2023-07-29T08:47:09;89605.80;;;21.60
68440;BMP180;55421;51.600;5.718;2023-07-29T08:49:37;88997.40;;;21.60
68440;BMP180;55421;51.600;5.718;2023-07-29T08:52:05;87817.20;;;21.60
68440;BMP180;55421;51.600;5.718;2023-07-29T08:54:33;88447.20;;;21.60
68440;BMP180;55421;51.600;5.718;2023-07-29T08:56:59;92850.20;;;21.56
68440;BMP180;55421;51.600;5.718;2023-07-29T08:59:28;94163.60;;;21.60
68440;BMP180;55421;51.600;5.718;2023-07-29T09:01:56;97043.60;;;21.60
68440;BMP180;55421;51.600;5.718;2023-07-29T09:04:23;92560.80;;;21.70
68440;BMP180;55421;51.600;5.718;2023-07-29T09:06:52;92260.00;;;21.72
68440;BMP180;55421;51.600;5.718;2023-07-29T09:09:21;95168.00;;;21.80
68440;BMP180;55421;51.600;5.718;2023-07-29T09:11:48;92985.20;;;21.96
68440;BMP180;55421;51.600;5.718;2023-07-29T09:14:15;92676.20;;;22.10
68440;BMP180;55421;51.600;5.718;2023-07-29T09:16:41;93399.40;;;22.20
68440;BMP180;55421;51.600;5.718;2023-07-29T09:19:08;86512.00;;;22.30
68440;BMP180;55421;51.600;5.718;2023-07-29T09:21:39;76657.60;;;22.30
68440;BMP180;55421;51.600;5.718;2023-07-29T09:24:07;71357.40;;;22.30
68440;BMP180;55421;51.600;5.718;2023-07-29T09:26:34;66740.40;;;22.32
68440;BMP180;55421;51.600;5.718;2023-07-29T09:29:01;61035.60;;;22.30
68440;BMP180;55421;51.600;5.718;2023-07-29T09:31:29;59503.60;;;22.40
68440;BMP180;55421;51.600;5.718;2023-07-29T09:34:01;59077.60;;;22.40
68440;BMP180;55421;51.600;5.718;2023-07-29T09:36:30;62484.80;;;22.42
68440;BMP180;55421;51.600;5.718;2023-07-29T09:38:58;65631.20;;;22.62
68440;BMP180;55421;51.600;5.718;2023-07-29T09:41:26;57294.60;;;22.70
68440;BMP180;55421;51.600;5.718;2023-07-29T09:44:02;55224.60;;;22.84
68440;BMP180;55421;51.600;5.718;2023-07-29T09:46:35;55083.20;;;23.02
68440;BMP180;55421;51.600;5.718;2023-07-29T09:49:04;50300.80;;;23.10
68440;BMP180;55421;51.600;5.718;2023-07-29T09:51:31;48612.20;;;23.10
68440;BMP180;55421;51.600;5.718;2023-07-29T09:54:02;44941.80;;;23.20
68440;BMP180;55421;51.600;5.718;2023-07-29T09:56:29;42901.80;;;23.30
68440;BMP180;55421;51.600;5.718;2023-07-29T09:58:56;42416.60;;;23.30
68440;BMP180;55421;51.600;5.718;2023-07-29T10:01:24;33552.40;;;23.34
68440;BMP180;55421;51.600;5.718;2023-07-29T10:03:51;31106.40;;;23.40
68440;BMP180;55421;51.600;5.718;2023-07-29T10:06:18;26138.80;;;23.20
68440;BMP180;55421;51.600;5.718;2023-07-29T10:08:45;20863.00;;;23.02
68440;BMP180;55421;51.600;5.718;2023-07-29T10:11:13;17785.20;;;22.90
68440;BMP180;55421;51.600;5.718;2023-07-29T10:13:40;15606.40;;;22.80
68440;BMP180;55421;51.600;5.718;2023-07-29T10:16:07;17695.80;;;22.72
68440;BMP180;55421;51.600;5.718;2023-07-29T10:18:33;13887.20;;;22.70
68440;BMP180;55421;51.600;5.718;2023-07-29T10:21:02;13472.00;;;22.62
68440;BMP180;55421;51.600;5.718;2023-07-29T10:23:37;11805.60;;;22.60
68440;BMP180;55421;51.600;5.718;2023-07-29T10:26:09;14350.00;;;22.60
68440;BMP180;55421;51.600;5.718;2023-07-29T10:28:41;17568.60;;;22.60
68440;BMP180;55421;51.600;5.718;2023-07-29T10:31:12;23556.40;;;22.60
68440;BMP180;55421;51.600;5.718;2023-07-29T10:33:39;23087.80;;;22.60
68440;BMP180;55421;51.600;5.718;2023-07-29T10:36:06;22313.40;;;22.60
68440;BMP180;55421;51.600;5.718;2023-07-29T10:38:34;34912.60;;;22.80
68440;BMP180;55421;51.600;5.718;2023-07-29T10:41:00;45955.60;;;23.10
68440;BMP180;55421;51.600;5.718;2023-07-29T10:43:37;45069.40;;;23.36
68440;BMP180;55421;51.600;5.718;2023-07-29T10:46:22;47518.40;;;23.64
68440;BMP180;55421;51.600;5.718;2023-07-29T10:48:55;45989.40;;;23.98
68440;BMP180;55421;51.600;5.718;2023-07-29T10:51:30;40606.00;;;24.00
68440;BMP180;55421;51.600;5.718;2023-07-29T10:54:17;37404.60;;;24.10
68440;BMP180;55421;51.600;5.718;2023-07-29T10:56:48;32519.00;;;24.20
68440;BMP180;55421;51.600;5.718;2023-07-29T11:02:00;22462.80;;;24.60
68440;BMP180;55421;51.600;5.718;2023-07-29T11:04:29;28124.00;;;24.96
68440;BMP180;55421;51.600;5.718;2023-07-29T11:12:39;148166.59;;;24.80
68440;BMP180;55421;51.600;5.718;2023-07-29T11:17:43;238267.00;;;24.50
68440;BMP180;55421;51.600;5.718;2023-07-29T11:20:12;230241.00;;;24.36
68440;BMP180;55421;51.600;5.718;2023-07-29T11:22:39;228019.20;;;24.10
68440;BMP180;55421;51.600;5.718;2023-07-29T11:25:09;227919.80;;;23.94
68440;BMP180;55421;51.600;5.718;2023-07-29T11:27:36;227788.41;;;23.70
68440;BMP180;55421;51.600;5.718;2023-07-29T11:30:06;227663.80;;;23.50
68440;BMP180;55421;51.600;5.718;2023-07-29T11:32:36;227606.59;;;23.40
68440;BMP180;55421;51.600;5.718;2023-07-29T11:35:07;227570.80;;;23.30
68440;BMP180;55421;51.600;5.718;2023-07-29T11:37:34;227553.20;;;23.30
68440;BMP180;55421;51.600;5.718;2023-07-29T11:40:03;227542.00;;;23.30
68440;BMP180;55421;51.600;5.718;2023-07-29T11:42:32;227517.80;;;23.30
68440;BMP180;55421;51.600;5.718;2023-07-29T11:45:01;227505.41;;;23.20
68440;BMP180;55421;51.600;5.718;2023-07-29T11:47:30;228381.59;;;23.26
68440;BMP180;55421;51.600;5.718;2023-07-29T11:49:59;231817.00;;;23.30
68440;BMP180;55421;51.600;5.718;2023-07-29T11:52:28;236136.00;;;23.34
68440;BMP180;55421;51.600;5.718;2023-07-29T11:54:55;235439.20;;;23.30
68440;BMP180;55421;51.600;5.718;2023-07-29T11:57:21;233286.20;;;23.30
68440;BMP180;55421;51.600;5.718;2023-07-29T11:59:49;233067.00;;;23.30
68440;BMP180;55421;51.600;5.718;2023-07-29T12:02:20;229430.00;;;23.30
68440;BMP180;55421;51.600;5.718;2023-07-29T12:04:47;228132.59;;;23.40
68440;BMP180;55421;51.600;5.718;2023-07-29T12:07:16;228123.20;;;23.60
68440;BMP180;55421;51.600;5.718;2023-07-29T12:09:44;228003.80;;;23.80
68440;BMP180;55421;51.600;5.718;2023-07-29T12:12:11;228451.59;;;24.06
68440;BMP180;55421;51.600;5.718;2023-07-29T12:14:38;228072.20;;;24.20
68440;BMP180;55421;51.600;5.718;2023-07-29T12:17:06;228141.20;;;24.32
68440;BMP180;55421;51.600;5.718;2023-07-29T12:19:35;228180.41;;;24.40
68440;BMP180;55421;51.600;5.718;2023-07-29T12:22:04;228168.41;;;24.40
68440;BMP180;55421;51.600;5.718;2023-07-29T12:24:32;228106.20;;;24.30
68440;BMP180;55421;51.600;5.718;2023-07-29T12:27:00;228006.41;;;24.10
68440;BMP180;55421;51.600;5.718;2023-07-29T12:29:27;227908.59;;;23.90
68440;BMP180;55421;51.600;5.718;2023-07-29T12:32:03;227792.80;;;23.70
68440;BMP180;55421;51.600;5.718;2023-07-29T12:34:31;227645.00;;;23.48
68440;BMP180;55421;51.600;5.718;2023-07-29T12:36:59;227520.80;;;23.26
68440;BMP180;55421;51.600;5.718;2023-07-29T12:39:32;227359.20;;;22.94
68440;BMP180;55421;51.600;5.718;2023-07-29T12:42:00;227126.59;;;22.56
68440;BMP180;55421;51.600;5.718;2023-07-29T12:44:32;235181.41;;;22.02
68440;BMP180;55421;51.600;5.718;2023-07-29T12:47:05;244408.59;;;21.32
68440;BMP180;55421;51.600;5.718;2023-07-29T12:49:32;29314.20;;;20.90
68440;BMP180;55421;51.600;5.718;2023-07-29T12:51:59;50550.40;;;20.70
68440;BMP180;55421;51.600;5.718;2023-07-29T12:54:26;72538.60;;;20.70
68440;BMP180;55421;51.600;5.718;2023-07-29T12:56:53;79913.20;;;20.70
68440;BMP180;55421;51.600;5.718;2023-07-29T12:59:19;81177.20;;;20.66
68440;BMP180;55421;51.600;5.718;2023-07-29T13:01:46;87088.60;;;20.60
68440;BMP180;55421;51.600;5.718;2023-07-29T13:04:12;92387.00;;;20.70
68440;BMP180;55421;51.600;5.718;2023-07-29T13:06:39;95238.00;;;20.70
68440;BMP180;55421;51.600;5.718;2023-07-29T13:09:05;97996.80;;;20.80
68440;BMP180;55421;51.600;5.718;2023-07-29T13:11:32;101623.60;;;20.82
68440;BMP180;55421;51.600;5.718;2023-07-29T13:13:59;104551.80;;;20.90
68440;BMP180;55421;51.600;5.718;2023-07-29T13:16:28;107668.20;;;21.00
68440;BMP180;55421;51.600;5.718;2023-07-29T13:18:55;110980.80;;;21.10
68440;BMP180;55421;51.600;5.718;2023-07-29T13:21:22;109877.00;;;21.10
68440;BMP180;55421;51.600;5.718;2023-07-29T13:23:49;109982.00;;;21.20
68440;BMP180;55421;51.600;5.718;2023-07-29T13:26:15;112291.20;;;21.30
68440;BMP180;55421;51.600;5.718;2023-07-29T13:28:42;113863.20;;;21.32
68440;BMP180;55421;51.600;5.718;2023-07-29T13:31:08;114556.20;;;21.40
68440;BMP180;55421;51.600;5.718;2023-07-29T13:33:35;115346.00;;;21.46
68440;BMP180;55421;51.600;5.718;2023-07-29T13:36:01;113809.60;;;21.50
68440;BMP180;55421;51.600;5.718;2023-07-29T13:38:31;112333.00;;;21.50
68440;BMP180;55421;51.600;5.718;2023-07-29T13:40:57;114155.00;;;21.50
68440;BMP180;55421;51.600;5.718;2023-07-29T13:43:24;109110.60;;;21.50
68440;BMP180;55421;51.600;5.718;2023-07-29T13:45:50;110352.00;;;21.50
68440;BMP180;55421;51.600;5.718;2023-07-29T13:48:18;109495.00;;;21.70
68440;BMP180;55421;51.600;5.718;2023-07-29T13:50:45;109364.40;;;21.70
68440;BMP180;55421;51.600;5.718;2023-07-29T13:53:11;108537.60;;;21.70
68440;BMP180;55421;51.600;5.718;2023-07-29T13:55:38;112724.60;;;21.80
68440;BMP180;55421;51.600;5.718;2023-07-29T13:58:04;112312.00;;;21.90
68440;BMP180;55421;51.600;5.718;2023-07-29T14:00:30;115423.80;;;21.98
68440;BMP180;55421;51.600;5.718;2023-07-29T14:02:57;114047.60;;;22.00
68440;BMP180;55421;51.600;5.718;2023-07-29T14:05:24;110530.40;;;22.00
68440;BMP180;55421;51.600;5.718;2023-07-29T14:07:50;110175.80;;;22.00
68440;BMP180;55421;51.600;5.718;2023-07-29T14:10:17;108280.40;;;22.00
68440;BMP180;55421;51.600;5.718;2023-07-29T14:12:43;112451.60;;;22.10
68440;BMP180;55421;51.600;5.718;2023-07-29T14:15:09;112489.20;;;22.20